createdAt,value
2022-09-16T00:01:13.484Z,1.50
2022-09-16T00:03:41.581Z,1.00
2022-09-16T00:06:19.330Z,1.27
2022-09-16T00:08:47.708Z,0.95
2022-09-16T00:11:17.396Z,1.30
2022-09-16T00:13:45.405Z,1.15
2022-09-16T00:16:20.083Z,1.02
2022-09-16T00:18:48.616Z,1.10
2022-09-16T00:21:16.599Z,0.90
2022-09-16T00:23:44.493Z,0.88
2022-09-16T00:26:12.464Z,0.93
2022-09-16T00:28:41.842Z,1.40
2022-09-16T00:31:09.884Z,1.10
2022-09-16T00:33:37.938Z,1.10
2022-09-16T00:36:07.911Z,0.93
2022-09-16T00:38:36.103Z,1.20
2022-09-16T00:41:04.172Z,0.90
2022-09-16T00:46:30.830Z,1.23
2022-09-16T00:48:59.801Z,2.28
2022-09-16T00:51:29.040Z,1.17
2022-09-16T00:54:03.219Z,1.10
2022-09-16T00:56:35.844Z,0.90
2022-09-16T00:59:08.598Z,1.00
2022-09-16T01:01:39.250Z,1.40
2022-09-16T01:04:12.897Z,1.25
2022-09-16T01:06:41.573Z,1.45
2022-09-16T01:09:09.873Z,0.80
2022-09-16T01:11:37.709Z,1.20
2022-09-16T01:14:20.737Z,1.40
2022-09-16T01:16:59.223Z,1.55
2022-09-16T01:19:42.080Z,1.40
2022-09-16T01:22:22.965Z,2.35
2022-09-16T01:24:56.855Z,1.20
2022-09-16T01:27:50.487Z,1.50
2022-09-16T01:30:53.944Z,1.65
2022-09-16T01:33:32.599Z,1.42
2022-09-16T01:36:16.361Z,1.83
2022-09-16T01:39:01.627Z,1.45
2022-09-16T01:41:41.210Z,1.83
2022-09-16T01:44:18.589Z,1.30
2022-09-16T01:46:53.481Z,1.95
2022-09-16T01:49:27.435Z,1.58
2022-09-16T01:52:07.907Z,1.13
2022-09-16T01:54:42.837Z,1.92
2022-09-16T01:57:19.219Z,1.27
2022-09-16T01:59:53.409Z,1.70
2022-09-16T02:02:28.156Z,1.60
2022-09-16T02:04:58.558Z,1.55
2022-09-16T02:12:31.528Z,1.05
2022-09-16T02:15:05.006Z,1.42
2022-09-16T02:17:38.611Z,1.30
2022-09-16T02:20:11.082Z,1.40
2022-09-16T02:22:42.359Z,1.13
2022-09-16T02:25:14.289Z,1.42
2022-09-16T02:27:44.700Z,1.40
2022-09-16T02:30:17.061Z,1.45
2022-09-16T02:32:51.289Z,1.30
2022-09-16T02:35:21.595Z,1.23
2022-09-16T02:40:25.588Z,2.03
2022-09-16T02:42:54.126Z,2.00
2022-09-16T02:45:26.219Z,1.02
2022-09-16T02:48:03.310Z,1.05
2022-09-16T02:50:41.637Z,1.25
2022-09-16T02:53:20.243Z,1.20
2022-09-16T02:55:56.276Z,1.33
2022-09-16T02:58:24.400Z,1.10
2022-09-16T03:00:55.623Z,1.50
2022-09-16T03:03:25.496Z,1.10
2022-09-16T03:06:16.679Z,1.48
2022-09-16T03:08:46.241Z,1.30
2022-09-16T03:11:41.711Z,1.53
2022-09-16T03:14:22.578Z,1.23
2022-09-16T03:17:00.145Z,1.40
2022-09-16T03:19:37.328Z,1.00
2022-09-16T03:22:14.539Z,1.30
2022-09-16T03:24:52.482Z,1.33
2022-09-16T03:27:30.105Z,1.27
2022-09-16T03:30:04.548Z,1.40
2022-09-16T03:32:36.981Z,1.20
2022-09-16T03:35:10.801Z,1.10
2022-09-16T03:37:41.185Z,1.50
2022-09-16T03:40:11.843Z,1.40
2022-09-16T03:42:40.740Z,1.52
2022-09-16T03:45:11.185Z,1.60
2022-09-16T03:47:39.108Z,1.60
2022-09-16T03:50:09.461Z,1.50
2022-09-16T03:52:37.334Z,1.42
2022-09-16T03:55:05.748Z,1.45
2022-09-16T03:57:33.696Z,1.40
2022-09-16T04:00:01.840Z,1.40
2022-09-16T04:02:39.634Z,1.23
2022-09-16T04:05:10.126Z,1.27
2022-09-16T04:10:07.522Z,1.77
2022-09-16T04:12:35.542Z,1.60
2022-09-16T04:15:03.605Z,1.63
2022-09-16T04:17:32.686Z,1.60
2022-09-16T04:20:00.609Z,2.38
2022-09-16T04:22:31.528Z,1.77
2022-09-16T04:25:00.150Z,2.40
2022-09-16T04:27:28.054Z,2.38
2022-09-16T04:29:56.100Z,2.00
2022-09-16T04:32:24.954Z,2.13
2022-09-16T04:34:52.755Z,2.38
2022-09-16T04:37:20.678Z,2.13
2022-09-16T04:39:50.244Z,2.53
2022-09-16T04:42:18.160Z,2.33
2022-09-16T04:44:46.114Z,2.00
2022-09-16T04:47:14.162Z,2.25
2022-09-16T04:49:42.123Z,2.03
2022-09-16T04:52:11.022Z,2.45
2022-09-16T04:54:39.230Z,2.47
2022-09-16T04:57:08.496Z,2.78
2022-09-16T04:59:36.428Z,2.50
2022-09-16T05:02:04.543Z,2.30
2022-09-16T05:04:32.795Z,2.53
2022-09-16T05:07:00.770Z,2.08
2022-09-16T05:09:29.177Z,2.67
2022-09-16T05:11:57.076Z,1.90
2022-09-16T05:14:26.431Z,2.00
2022-09-16T05:16:55.029Z,1.92
2022-09-16T05:19:22.919Z,2.22
2022-09-16T05:21:51.228Z,1.63
2022-09-16T05:24:19.141Z,1.98
2022-09-16T05:26:47.170Z,2.13
2022-09-16T05:29:17.035Z,2.20
2022-09-16T05:31:47.954Z,2.03
2022-09-16T05:34:17.555Z,2.30
2022-09-16T05:36:47.878Z,1.85
2022-09-16T05:39:26.220Z,2.20
2022-09-16T05:41:56.479Z,1.77
2022-09-16T05:44:24.466Z,2.15
2022-09-16T05:46:54.072Z,1.98
2022-09-16T05:49:23.262Z,2.05
2022-09-16T05:51:51.679Z,2.28
2022-09-16T05:54:20.399Z,1.80
2022-09-16T05:56:49.247Z,2.08
2022-09-16T05:59:18.054Z,1.80
2022-09-16T06:01:46.746Z,1.95
2022-09-16T06:04:16.646Z,2.28
2022-09-16T06:06:46.274Z,2.10
2022-09-16T06:09:16.751Z,1.77
2022-09-16T06:11:47.284Z,2.45
2022-09-16T06:14:16.105Z,2.10
2022-09-16T06:16:44.721Z,2.42
2022-09-16T06:19:15.374Z,2.70
2022-09-16T06:21:45.827Z,2.60
2022-09-16T06:24:14.547Z,2.60
2022-09-16T06:26:45.115Z,2.80
2022-09-16T06:29:13.390Z,2.67
2022-09-16T06:31:41.845Z,2.95
2022-09-16T06:34:14.811Z,2.63
2022-09-16T06:36:45.551Z,2.20
2022-09-16T06:39:15.032Z,2.03
2022-09-16T06:41:43.415Z,2.38
2022-09-16T06:44:11.474Z,2.78
2022-09-16T06:46:39.920Z,2.75
2022-09-16T06:49:08.003Z,2.88
2022-09-16T06:51:37.035Z,3.13
2022-09-16T06:54:09.013Z,2.83
2022-09-16T06:56:39.400Z,2.28
2022-09-16T06:59:07.483Z,2.63
2022-09-16T07:01:35.986Z,2.42
2022-09-16T07:04:05.953Z,2.60
2022-09-16T07:09:24.549Z,2.67
2022-09-16T07:11:52.454Z,3.22
2022-09-16T07:14:20.621Z,2.80
2022-09-16T07:16:48.609Z,2.88
2022-09-16T07:19:16.604Z,2.92
2022-09-16T07:21:44.749Z,2.70
2022-09-16T07:24:14.553Z,2.58
2022-09-16T07:26:45.429Z,2.30
2022-09-16T07:29:15.344Z,2.30
2022-09-16T07:31:43.921Z,2.28
2022-09-16T07:34:13.936Z,2.03
2022-09-16T07:36:43.753Z,1.95
2022-09-16T07:39:13.546Z,1.80
2022-09-16T07:41:44.879Z,1.70
2022-09-16T07:44:14.635Z,1.75
2022-09-16T07:46:42.777Z,1.35
2022-09-16T07:49:14.229Z,1.60
2022-09-16T07:51:42.515Z,1.48
2022-09-16T07:54:13.308Z,1.40
2022-09-16T07:56:44.260Z,1.35
2022-09-16T07:59:18.501Z,1.63
2022-09-16T08:01:48.342Z,1.30
2022-09-16T08:04:16.604Z,1.60
2022-09-16T08:06:44.472Z,1.55
2022-09-16T08:09:37.252Z,1.30
2022-09-16T08:12:05.179Z,1.98
2022-09-16T08:14:33.292Z,1.70
2022-09-16T08:17:01.922Z,1.90
2022-09-16T08:19:29.947Z,2.10
2022-09-16T08:21:57.990Z,2.28
2022-09-16T08:24:26.546Z,1.65
2022-09-16T08:29:25.720Z,2.00
2022-09-16T08:31:54.053Z,2.10
2022-09-16T08:34:22.207Z,1.67
2022-09-16T08:36:50.494Z,1.52
2022-09-16T08:39:18.396Z,1.90
2022-09-16T08:42:08.151Z,1.83
2022-09-16T08:44:46.878Z,1.40
2022-09-16T08:47:28.603Z,1.40
2022-09-16T08:50:00.109Z,1.63
2022-09-16T08:52:32.213Z,1.42
2022-09-16T08:55:03.550Z,1.75
2022-09-16T08:57:36.145Z,1.30
2022-09-16T09:00:09.273Z,1.60
2022-09-16T09:02:44.103Z,1.40
2022-09-16T09:05:19.724Z,1.10
2022-09-16T09:08:06.601Z,1.30
2022-09-16T09:10:43.903Z,1.20
2022-09-16T09:13:23.148Z,1.50
2022-09-16T09:16:00.008Z,1.53
2022-09-16T09:18:39.563Z,1.02
2022-09-16T09:21:20.723Z,1.93
2022-09-16T09:24:06.893Z,1.50
2022-09-16T09:26:43.146Z,1.42
2022-09-16T09:29:40.124Z,1.70
2022-09-16T09:32:21.362Z,0.95
2022-09-16T09:35:03.805Z,1.33
2022-09-16T09:37:56.948Z,1.33
2022-09-16T09:40:33.479Z,1.00
2022-09-16T09:43:10.462Z,1.48
2022-09-16T09:45:41.929Z,1.33
2022-09-16T09:48:19.462Z,1.33
2022-09-16T09:50:49.825Z,1.40
2022-09-16T09:55:50.923Z,1.48
2022-09-16T09:58:26.254Z,1.85
2022-09-16T10:00:56.328Z,1.42
2022-09-16T10:03:27.398Z,1.52
2022-09-16T10:05:55.550Z,1.95
2022-09-16T10:08:28.362Z,4.47
2022-09-16T10:10:58.971Z,1.23
2022-09-16T10:13:29.881Z,1.50
2022-09-16T10:16:10.696Z,1.80
2022-09-16T10:18:41.295Z,4.07
2022-09-16T10:21:12.826Z,3.60
2022-09-16T10:23:41.058Z,2.15
2022-09-16T10:26:20.408Z,1.63
2022-09-16T10:28:56.713Z,1.10
2022-09-16T10:31:29.255Z,1.30
2022-09-16T10:34:03.337Z,1.55
2022-09-16T10:36:35.325Z,1.70
2022-09-16T10:39:05.603Z,1.17
2022-09-16T10:41:36.231Z,1.40
2022-09-16T10:44:17.327Z,1.00
2022-09-16T10:46:53.790Z,1.83
2022-09-16T10:49:28.828Z,1.52
2022-09-16T10:51:56.858Z,1.45
2022-09-16T10:54:28.272Z,1.40
2022-09-16T10:56:56.379Z,1.63
2022-09-16T10:59:24.385Z,1.52
2022-09-16T11:02:04.182Z,0.88
2022-09-16T11:04:46.141Z,1.45
2022-09-16T11:07:29.502Z,1.30
2022-09-16T11:10:05.151Z,1.00
2022-09-16T11:12:52.137Z,1.30
2022-09-16T11:15:31.355Z,1.60
2022-09-16T11:18:14.919Z,1.23
2022-09-16T11:21:08.860Z,1.30
2022-09-16T11:23:51.060Z,0.90
2022-09-16T11:26:30.257Z,1.08
2022-09-16T11:29:14.160Z,1.23
2022-09-16T11:31:54.200Z,1.17
2022-09-16T11:34:45.132Z,3.22
2022-09-16T11:37:20.697Z,1.50
2022-09-16T11:40:03.720Z,1.08
2022-09-16T11:42:36.224Z,1.58
2022-09-16T11:45:19.127Z,1.30
2022-09-16T11:47:59.083Z,1.38
2022-09-16T11:50:38.606Z,1.15
2022-09-16T11:53:43.160Z,1.25
2022-09-16T11:56:16.662Z,1.30
2022-09-16T11:58:47.709Z,1.73
2022-09-16T12:01:27.647Z,1.30
2022-09-16T12:04:03.401Z,1.55
2022-09-16T12:06:40.723Z,1.13
2022-09-16T12:09:14.971Z,1.50
2022-09-16T12:11:47.054Z,2.75
2022-09-16T12:14:19.881Z,1.25
2022-09-16T12:16:55.183Z,1.00
2022-09-16T12:19:26.383Z,1.30
2022-09-16T12:22:00.243Z,1.00
2022-09-16T12:24:37.700Z,0.90
2022-09-16T12:27:10.961Z,1.45
2022-09-16T12:29:44.514Z,1.20
2022-09-16T12:32:17.105Z,1.15
2022-09-16T12:34:50.414Z,1.30
2022-09-16T12:37:33.824Z,1.30
2022-09-16T12:40:05.067Z,1.40
2022-09-16T12:43:17.202Z,1.40
2022-09-16T12:46:03.893Z,1.88
2022-09-16T12:48:54.415Z,1.30
2022-09-16T12:51:48.240Z,1.63
2022-09-16T12:55:04.061Z,1.17
2022-09-16T12:57:47.960Z,1.10
2022-09-16T13:00:21.263Z,1.08
2022-09-16T13:02:53.361Z,1.20
2022-09-16T13:05:32.448Z,1.60
2022-09-16T13:08:05.960Z,3.05
2022-09-16T13:13:33.245Z,1.10
2022-09-16T13:16:03.618Z,0.50
2022-09-16T13:21:23.703Z,0.50
2022-09-16T13:24:00.986Z,0.80
2022-09-16T13:26:39.699Z,0.75
2022-09-16T13:29:28.521Z,0.60
2022-09-16T13:34:30.166Z,0.45
2022-09-16T13:36:58.503Z,0.50
2022-09-16T13:39:31.782Z,0.70
2022-09-16T13:42:11.671Z,0.90
2022-09-16T13:44:44.273Z,0.50
2022-09-16T13:47:30.729Z,0.65
2022-09-16T13:50:02.047Z,0.70
2022-09-16T13:52:32.367Z,0.90
2022-09-16T13:58:00.258Z,0.80
2022-09-16T14:00:41.377Z,0.70
2022-09-16T14:03:45.743Z,1.10
2022-09-16T14:06:46.747Z,0.80
2022-09-16T14:09:27.508Z,1.02
2022-09-16T14:12:04.419Z,0.90
2022-09-16T14:14:50.588Z,1.42
2022-09-16T14:17:25.421Z,1.00
2022-09-16T14:19:59.401Z,1.40
2022-09-16T14:22:28.722Z,1.25
2022-09-16T14:25:06.826Z,1.27
2022-09-16T14:27:44.708Z,0.90
2022-09-16T14:30:16.919Z,1.10
2022-09-16T14:32:48.026Z,1.48
2022-09-16T14:35:20.676Z,1.13
2022-09-16T14:37:52.277Z,1.02
2022-09-16T14:40:24.432Z,1.42
2022-09-16T14:42:56.383Z,1.15
2022-09-16T14:45:24.879Z,0.98
2022-09-16T14:47:56.324Z,1.40
2022-09-16T14:50:27.576Z,1.00
2022-09-16T14:52:57.179Z,1.30
2022-09-16T14:55:27.251Z,1.10
2022-09-16T14:57:55.423Z,1.13
2022-09-16T15:00:26.244Z,1.17
2022-09-16T15:02:59.771Z,1.27
2022-09-16T15:05:33.591Z,1.20
2022-09-16T15:08:14.276Z,1.35
2022-09-16T15:10:52.510Z,1.10
2022-09-16T15:13:23.997Z,1.23
2022-09-16T15:15:56.024Z,1.23
2022-09-16T15:18:29.609Z,1.67
2022-09-16T15:21:06.164Z,1.80
2022-09-16T15:23:35.976Z,1.35
2022-09-16T15:26:13.745Z,0.90
2022-09-16T15:28:54.290Z,0.90
2022-09-16T15:31:34.684Z,1.17
2022-09-16T15:34:06.988Z,1.10
2022-09-16T15:36:40.990Z,1.30
2022-09-16T15:39:24.595Z,3.80
2022-09-16T15:42:06.138Z,1.30
2022-09-16T15:44:37.361Z,1.15
2022-09-16T15:47:06.557Z,1.15
2022-09-16T15:49:40.125Z,1.10
2022-09-16T15:52:11.691Z,1.13
2022-09-16T15:54:49.601Z,1.00
2022-09-16T15:57:30.970Z,0.90
2022-09-16T16:00:10.950Z,1.02
2022-09-16T16:02:46.535Z,0.80
2022-09-16T16:05:18.625Z,1.13
2022-09-16T16:07:50.111Z,1.70
2022-09-16T16:10:20.820Z,1.40
2022-09-16T16:12:49.444Z,1.40
2022-09-16T16:15:21.164Z,1.30
2022-09-16T16:17:49.675Z,1.60
2022-09-16T16:20:19.740Z,1.83
2022-09-16T16:22:48.376Z,2.45
2022-09-16T16:25:17.364Z,1.60
2022-09-16T16:27:45.455Z,1.10
2022-09-16T16:30:13.849Z,1.20
2022-09-16T16:32:41.867Z,1.17
2022-09-16T16:35:10.461Z,1.70
2022-09-16T16:37:46.318Z,1.15
2022-09-16T16:40:15.342Z,1.40
2022-09-16T16:42:44.193Z,0.98
2022-09-16T16:45:13.132Z,1.60
2022-09-16T16:47:41.193Z,1.00
2022-09-16T16:50:10.007Z,4.22
2022-09-16T16:52:39.391Z,1.23
2022-09-16T16:55:09.460Z,1.23
2022-09-16T16:57:37.457Z,1.08
2022-09-16T17:00:06.566Z,1.63
2022-09-16T17:02:34.973Z,1.60
2022-09-16T17:05:03.465Z,1.40
2022-09-16T17:07:31.341Z,1.30
2022-09-16T17:10:00.769Z,1.17
2022-09-16T17:12:28.856Z,1.43
2022-09-16T17:14:56.756Z,1.30
2022-09-16T17:17:29.118Z,1.13
2022-09-16T17:19:59.727Z,1.23
2022-09-16T17:22:27.665Z,1.15
2022-09-16T17:24:55.627Z,1.55
2022-09-16T17:27:26.996Z,1.80
2022-09-16T17:29:54.869Z,1.60
2022-09-16T17:32:22.705Z,1.50
2022-09-16T17:34:50.557Z,1.77
2022-09-16T17:37:19.833Z,1.40
2022-09-16T17:39:48.615Z,1.33
2022-09-16T17:42:16.729Z,1.77
2022-09-16T17:44:46.095Z,1.75
2022-09-16T17:47:13.995Z,1.60
2022-09-16T17:49:42.133Z,1.38
2022-09-16T17:52:10.103Z,1.30
2022-09-16T17:54:38.823Z,1.35
2022-09-16T17:57:07.235Z,1.45
2022-09-16T17:59:35.299Z,1.42
2022-09-16T18:02:04.717Z,1.40
2022-09-16T18:04:32.676Z,2.60
2022-09-16T18:07:00.712Z,1.23
2022-09-16T18:09:29.087Z,2.03
2022-09-16T18:11:58.415Z,1.73
2022-09-16T18:14:26.651Z,1.80
2022-09-16T18:16:54.953Z,1.92
2022-09-16T18:19:24.310Z,1.92
2022-09-16T18:21:52.500Z,1.70
2022-09-16T18:24:20.556Z,2.10
2022-09-16T18:26:49.559Z,2.05
2022-09-16T18:29:17.597Z,2.03
2022-09-16T18:31:47.743Z,1.70
2022-09-16T18:34:16.623Z,2.45
2022-09-16T18:36:46.079Z,1.83
2022-09-16T18:39:16.734Z,1.63
2022-09-16T18:41:46.147Z,2.17
2022-09-16T18:44:16.593Z,2.13
2022-09-16T18:46:44.916Z,2.10
2022-09-16T18:49:14.268Z,2.67
2022-09-16T18:51:48.538Z,2.17
2022-09-16T18:54:24.624Z,2.05
2022-09-16T18:56:55.833Z,2.03
2022-09-16T18:59:26.895Z,2.42
2022-09-16T19:01:56.993Z,2.42
2022-09-16T19:04:27.567Z,1.85
2022-09-16T19:06:58.750Z,1.80
2022-09-16T19:09:28.418Z,2.10
2022-09-16T19:11:56.632Z,2.00
2022-09-16T19:14:27.446Z,1.73
2022-09-16T19:16:56.205Z,1.73
2022-09-16T19:19:24.365Z,1.52
2022-09-16T19:21:52.592Z,2.13
2022-09-16T19:24:22.970Z,2.13
2022-09-16T19:29:21.681Z,1.20
2022-09-16T19:31:51.968Z,1.83
2022-09-16T19:34:21.340Z,1.63
2022-09-16T19:36:49.929Z,1.77
2022-09-16T19:39:19.047Z,2.35
2022-09-16T19:41:47.442Z,1.65
2022-09-16T19:44:18.683Z,1.83
2022-09-16T19:46:49.301Z,1.90
2022-09-16T19:49:20.534Z,1.95
2022-09-16T19:51:50.037Z,2.10
2022-09-16T19:54:18.713Z,2.03
2022-09-16T19:56:50.726Z,1.92
2022-09-16T19:59:22.400Z,1.83
2022-09-16T20:01:50.556Z,2.28
2022-09-16T20:04:21.226Z,2.45
2022-09-16T20:06:52.120Z,1.92
2022-09-16T20:09:20.546Z,2.72
2022-09-16T20:11:49.996Z,1.77
2022-09-16T20:14:21.748Z,2.53
2022-09-16T20:16:51.760Z,2.42
2022-09-16T20:19:21.326Z,2.58
2022-09-16T20:21:49.831Z,2.05
2022-09-16T20:24:19.864Z,2.20
2022-09-16T20:26:48.769Z,2.22
2022-09-16T20:29:18.272Z,1.67
2022-09-16T20:31:49.240Z,2.22
2022-09-16T20:34:17.856Z,1.60
2022-09-16T20:36:47.642Z,2.08
2022-09-16T20:39:15.896Z,1.80
2022-09-16T20:41:45.547Z,2.03
2022-09-16T20:44:15.849Z,1.75
2022-09-16T20:46:44.980Z,2.13
2022-09-16T20:49:16.782Z,1.52
2022-09-16T20:51:46.262Z,1.58
2022-09-16T20:54:16.285Z,1.57
2022-09-16T20:56:46.024Z,1.92
2022-09-16T20:59:16.468Z,1.60
2022-09-16T21:01:45.423Z,1.98
2022-09-16T21:04:16.453Z,1.27
2022-09-16T21:06:45.529Z,1.08
2022-09-16T21:09:16.027Z,1.42
2022-09-16T21:11:45.519Z,1.00
2022-09-16T21:14:16.306Z,1.33
2022-09-16T21:16:45.943Z,1.13
2022-09-16T21:19:16.821Z,1.17
2022-09-16T21:21:47.598Z,1.00
2022-09-16T21:24:16.517Z,0.93
2022-09-16T21:26:45.539Z,1.20
2022-09-16T21:29:15.472Z,1.20
2022-09-16T21:31:44.397Z,1.00
2022-09-16T21:34:16.879Z,1.13
2022-09-16T21:36:45.519Z,1.20
2022-09-16T21:39:14.496Z,0.90
2022-09-16T21:41:42.696Z,0.98
2022-09-16T21:44:10.985Z,1.58
2022-09-16T21:46:43.138Z,0.93
2022-09-16T21:49:19.230Z,1.20
2022-09-16T21:51:49.164Z,1.15
2022-09-16T21:54:20.097Z,1.10
2022-09-16T21:56:49.529Z,0.93
2022-09-16T21:59:19.667Z,1.05
2022-09-16T22:04:18.081Z,1.08
2022-09-16T22:06:46.071Z,1.40
2022-09-16T22:09:15.611Z,1.20
2022-09-16T22:11:43.856Z,1.20
2022-09-16T22:14:12.379Z,1.17
2022-09-16T22:16:41.455Z,1.08
2022-09-16T22:19:11.511Z,1.30
2022-09-16T22:21:40.995Z,1.20
2022-09-16T22:24:09.690Z,1.10
2022-09-16T22:26:39.981Z,0.98
2022-09-16T22:31:38.990Z,0.70
2022-09-16T22:34:07.141Z,0.90
2022-09-16T22:36:36.965Z,0.60
2022-09-16T22:39:07.281Z,0.75
2022-09-16T22:44:05.344Z,1.23
2022-09-16T22:46:35.455Z,0.63
2022-09-16T22:49:03.496Z,0.90
2022-09-16T22:51:32.793Z,0.85
2022-09-16T22:54:00.992Z,0.80
2022-09-16T22:56:33.522Z,0.70
2022-09-16T22:59:03.270Z,0.82
2022-09-16T23:01:35.406Z,0.90
2022-09-16T23:04:04.901Z,0.90
2022-09-16T23:06:34.782Z,0.80
2022-09-16T23:09:02.958Z,0.40
2022-09-16T23:11:32.557Z,0.80
2022-09-16T23:14:01.546Z,0.70
2022-09-16T23:16:33.637Z,0.63
2022-09-16T23:19:07.572Z,0.55
2022-09-16T23:21:35.703Z,0.60
2022-09-16T23:24:05.506Z,0.35
2022-09-16T23:26:35.621Z,0.60
2022-09-16T23:29:06.102Z,0.70
2022-09-16T23:31:37.786Z,0.60
2022-09-16T23:34:07.821Z,0.80
2022-09-16T23:36:38.030Z,0.70
2022-09-16T23:39:07.566Z,0.70
2022-09-16T23:41:35.874Z,1.08
2022-09-16T23:44:04.357Z,1.50
2022-09-16T23:46:33.517Z,1.00
2022-09-16T23:49:03.336Z,0.90
2022-09-16T23:51:32.294Z,1.13
2022-09-16T23:54:01.154Z,0.95
2022-09-16T23:56:29.233Z,1.08
2022-09-16T23:59:00.849Z,1.10
